Carpenter, SD (57322)

2:59 PM CDT on September 17, 2014 (GMT -0500)
Iroquois SD | Change Station
CLOSE
Current Station
Personal Weather Station
Location: Iroquois, SD
Elevation: 1427 ft
Nearby Weather Stations

Elev 1427 ft 44.45 °N, 97.86 °W | Updated 11 minutes ago

Clear
Clear
80.6 °F
Feels Like 80 °F
N
2.7
Wind Variable Wind from North

Today
High -- | Low -- °F
--% Chance of Precip.
Yesterday
High -- | Low -- °F
Precip. -- in
7:12 AM 7:38 PM
Waning Crescent, 33% visible
Pressure 29.91 in
Visibility 10.0 miles
Clouds Clear
Heat Index 80 °F
Dew Point 54 °F
Humidity 40%
Rainfall 0.00 in
Snow Depth 0 in
UV 7 out of 12
Pollen 5.10 out of 12
Air Quality Not available.
Flu Activity Not available.
METAR KHON 171855Z AUTO 35007KT 10SM CLR 25/12 A2992 RMK AO2 SLP129 T02500122

More Conditions Fewer Conditions

Pressure 29.91 in
Visibility 10.0 miles
Clouds Clear
Heat Index 80 °F
Dew Point 54 °F
Humidity 40%
Rainfall 0.00 in
Snow Depth 0 in
UV 7 out of 12
Pollen 5.10 out of 12
Air Quality Not available.
Flu Activity Not available.
METAR KHON 171855Z AUTO 35007KT 10SM CLR 25/12 A2992 RMK AO2 SLP129 T02500122

More Conditions Fewer Conditions

10-Day Weather Forecast

Almanac

Astronomy

Sep. 17, 2014 Rise Set
Actual Time 7:12 AM CDT 7:38 PM CDT
Civil Twilight 6:43 AM CDT 8:07 PM CDT
Nautical Twilight 6:09 AM CDT 8:42 PM CDT
Astronomical Twilight 5:33 AM CDT 9:17 PM CDT
Moon 1:03 AM CDT 3:59 PM CDT
Length of Visible Light 13h 24m
Length of Day
12h 25m
Tomorrow will be 3m 4s shorter.
Waning Crescent, 33% of the Moon is Illuminated
Today
Waning Crescent
Sep 24
New
Oct 1
First Quarter
Oct 8
Full
Oct 15
Last Quarter

Today's Extremes

State Highs State Lows

Community

WunderPhotos

Upload Photos

1,754,149 photos uploaded!

Nearby

Snow Depth

Station Depth Elevation
Blind Park 0 in 6890 ft

Earthquake Activity

City Distance Mag. Time & Date
No recent earthquake activity has been reported nearby.
Minimum magnitude displayed is 2.5.

Coastal Water Temperatures

Place Temperature
No Stations Reporting

Nearby Weather Stations